sensor_id;sensor_type;location;lat;lon;timestamp;P1;durP1;ratioP1;P2;durP2;ratioP2
78622;SDS011;67943;54.412;9.502;2023-05-10T00:04:54;3.85;;;2.53;;
78622;SDS011;67943;54.412;9.502;2023-05-10T00:09:55;6.32;;;2.50;;
78622;SDS011;67943;54.412;9.502;2023-05-10T00:14:58;4.57;;;2.90;;
78622;SDS011;67943;54.412;9.502;2023-05-10T00:20:00;4.43;;;2.38;;
78622;SDS011;67943;54.412;9.502;2023-05-10T00:25:01;5.43;;;2.80;;
78622;SDS011;67943;54.412;9.502;2023-05-10T00:30:05;3.63;;;2.60;;
78622;SDS011;67943;54.412;9.502;2023-05-10T00:35:08;5.72;;;2.75;;
78622;SDS011;67943;54.412;9.502;2023-05-10T00:40:10;4.22;;;2.42;;
78622;SDS011;67943;54.412;9.502;2023-05-10T00:45:13;8.07;;;2.60;;
78622;SDS011;67943;54.412;9.502;2023-05-10T00:50:15;7.07;;;2.55;;
78622;SDS011;67943;54.412;9.502;2023-05-10T00:55:16;4.47;;;2.55;;
78622;SDS011;67943;54.412;9.502;2023-05-10T01:00:20;6.47;;;2.60;;
78622;SDS011;67943;54.412;9.502;2023-05-10T01:05:22;5.00;;;2.90;;
78622;SDS011;67943;54.412;9.502;2023-05-10T01:10:24;7.07;;;2.70;;
78622;SDS011;67943;54.412;9.502;2023-05-10T01:15:27;5.65;;;2.50;;
78622;SDS011;67943;54.412;9.502;2023-05-10T01:20:29;3.60;;;2.58;;
78622;SDS011;67943;54.412;9.502;2023-05-10T01:25:43;7.93;;;2.75;;
78622;SDS011;67943;54.412;9.502;2023-05-10T01:31:08;7.57;;;2.80;;
78622;SDS011;67943;54.412;9.502;2023-05-10T01:36:22;4.40;;;2.40;;
78622;SDS011;67943;54.412;9.502;2023-05-10T01:41:28;6.78;;;2.70;;
78622;SDS011;67943;54.412;9.502;2023-05-10T01:46:39;7.47;;;2.70;;
78622;SDS011;67943;54.412;9.502;2023-05-10T01:51:44;4.38;;;2.55;;
78622;SDS011;67943;54.412;9.502;2023-05-10T01:56:52;7.80;;;3.25;;
78622;SDS011;67943;54.412;9.502;2023-05-10T02:01:58;4.95;;;2.75;;
78622;SDS011;67943;54.412;9.502;2023-05-10T02:07:02;5.72;;;2.80;;
78622;SDS011;67943;54.412;9.502;2023-05-10T02:12:05;4.35;;;2.55;;
78622;SDS011;67943;54.412;9.502;2023-05-10T02:17:08;5.95;;;2.58;;
78622;SDS011;67943;54.412;9.502;2023-05-10T02:22:12;4.22;;;2.67;;
78622;SDS011;67943;54.412;9.502;2023-05-10T02:27:14;6.40;;;2.65;;
78622;SDS011;67943;54.412;9.502;2023-05-10T02:32:17;5.97;;;3.00;;
78622;SDS011;67943;54.412;9.502;2023-05-10T02:37:21;5.10;;;2.90;;
78622;SDS011;67943;54.412;9.502;2023-05-10T02:42:23;4.43;;;2.50;;
78622;SDS011;67943;54.412;9.502;2023-05-10T02:47:27;6.50;;;2.40;;
78622;SDS011;67943;54.412;9.502;2023-05-10T02:52:34;6.40;;;3.05;;
78622;SDS011;67943;54.412;9.502;2023-05-10T02:57:41;4.35;;;2.95;;
78622;SDS011;67943;54.412;9.502;2023-05-10T03:02:47;4.82;;;2.92;;
78622;SDS011;67943;54.412;9.502;2023-05-10T03:07:50;6.10;;;3.25;;
78622;SDS011;67943;54.412;9.502;2023-05-10T03:12:56;8.25;;;3.08;;
78622;SDS011;67943;54.412;9.502;2023-05-10T03:18:07;11.60;;;3.00;;
78622;SDS011;67943;54.412;9.502;2023-05-10T03:23:13;4.75;;;3.00;;
78622;SDS011;67943;54.412;9.502;2023-05-10T03:28:22;7.22;;;3.20;;
78622;SDS011;67943;54.412;9.502;2023-05-10T03:33:26;4.78;;;2.83;;
78622;SDS011;67943;54.412;9.502;2023-05-10T03:38:29;4.20;;;3.00;;
78622;SDS011;67943;54.412;9.502;2023-05-10T03:43:31;6.38;;;3.28;;
78622;SDS011;67943;54.412;9.502;2023-05-10T03:48:32;6.10;;;2.97;;
78622;SDS011;67943;54.412;9.502;2023-05-10T03:53:35;5.40;;;2.95;;
78622;SDS011;67943;54.412;9.502;2023-05-10T03:58:37;5.15;;;3.15;;
78622;SDS011;67943;54.412;9.502;2023-05-10T04:03:38;4.30;;;2.70;;
78622;SDS011;67943;54.412;9.502;2023-05-10T04:08:41;6.55;;;3.35;;
78622;SDS011;67943;54.412;9.502;2023-05-10T04:13:43;6.90;;;3.63;;
78622;SDS011;67943;54.412;9.502;2023-05-10T04:18:44;6.55;;;3.90;;
78622;SDS011;67943;54.412;9.502;2023-05-10T04:23:47;6.22;;;3.50;;
78622;SDS011;67943;54.412;9.502;2023-05-10T04:28:48;5.25;;;3.20;;
78622;SDS011;67943;54.412;9.502;2023-05-10T04:33:50;6.53;;;3.28;;
78622;SDS011;67943;54.412;9.502;2023-05-10T04:38:53;6.20;;;3.67;;
78622;SDS011;67943;54.412;9.502;2023-05-10T04:43:55;5.85;;;3.08;;
78622;SDS011;67943;54.412;9.502;2023-05-10T04:48:56;5.80;;;3.45;;
78622;SDS011;67943;54.412;9.502;2023-05-10T04:53:59;6.90;;;3.60;;
78622;SDS011;67943;54.412;9.502;2023-05-10T04:59:00;6.97;;;3.53;;
78622;SDS011;67943;54.412;9.502;2023-05-10T05:04:02;7.18;;;3.65;;
78622;SDS011;67943;54.412;9.502;2023-05-10T05:09:06;9.52;;;3.47;;
78622;SDS011;67943;54.412;9.502;2023-05-10T05:14:07;6.90;;;3.40;;
78622;SDS011;67943;54.412;9.502;2023-05-10T05:19:09;5.57;;;3.50;;
78622;SDS011;67943;54.412;9.502;2023-05-10T05:24:12;6.53;;;4.18;;
78622;SDS011;67943;54.412;9.502;2023-05-10T05:29:13;5.57;;;3.35;;
78622;SDS011;67943;54.412;9.502;2023-05-10T05:34:15;6.82;;;3.70;;
78622;SDS011;67943;54.412;9.502;2023-05-10T05:39:18;5.90;;;3.30;;
78622;SDS011;67943;54.412;9.502;2023-05-10T05:44:19;7.03;;;3.80;;
78622;SDS011;67943;54.412;9.502;2023-05-10T05:49:21;8.18;;;4.07;;
78622;SDS011;67943;54.412;9.502;2023-05-10T05:54:23;5.55;;;3.63;;
78622;SDS011;67943;54.412;9.502;2023-05-10T05:59:25;5.88;;;3.30;;
78622;SDS011;67943;54.412;9.502;2023-05-10T06:04:27;7.50;;;3.90;;
78622;SDS011;67943;54.412;9.502;2023-05-10T06:09:30;6.13;;;3.80;;
78622;SDS011;67943;54.412;9.502;2023-05-10T06:14:31;5.13;;;3.55;;
78622;SDS011;67943;54.412;9.502;2023-05-10T06:19:33;5.80;;;3.67;;
78622;SDS011;67943;54.412;9.502;2023-05-10T06:24:35;8.30;;;3.85;;
78622;SDS011;67943;54.412;9.502;2023-05-10T06:29:37;7.15;;;4.22;;
78622;SDS011;67943;54.412;9.502;2023-05-10T06:34:39;5.15;;;3.85;;
78622;SDS011;67943;54.412;9.502;2023-05-10T06:39:41;6.95;;;3.97;;
78622;SDS011;67943;54.412;9.502;2023-05-10T06:44:43;7.40;;;4.38;;
78622;SDS011;67943;54.412;9.502;2023-05-10T06:49:44;7.82;;;3.90;;
78622;SDS011;67943;54.412;9.502;2023-05-10T06:54:47;4.93;;;3.70;;
78622;SDS011;67943;54.412;9.502;2023-05-10T06:59:49;5.35;;;3.53;;
78622;SDS011;67943;54.412;9.502;2023-05-10T07:04:50;6.50;;;3.30;;
78622;SDS011;67943;54.412;9.502;2023-05-10T07:09:53;5.13;;;3.60;;
78622;SDS011;67943;54.412;9.502;2023-05-10T07:14:56;7.00;;;3.70;;
78622;SDS011;67943;54.412;9.502;2023-05-10T07:19:58;6.50;;;4.40;;
78622;SDS011;67943;54.412;9.502;2023-05-10T07:25:01;10.68;;;3.85;;
78622;SDS011;67943;54.412;9.502;2023-05-10T07:30:03;5.07;;;3.50;;
78622;SDS011;67943;54.412;9.502;2023-05-10T07:35:06;5.95;;;3.72;;
78622;SDS011;67943;54.412;9.502;2023-05-10T07:40:09;7.20;;;3.47;;
78622;SDS011;67943;54.412;9.502;2023-05-10T07:45:11;5.35;;;3.45;;
78622;SDS011;67943;54.412;9.502;2023-05-10T07:50:13;5.63;;;3.75;;
78622;SDS011;67943;54.412;9.502;2023-05-10T07:55:16;6.90;;;3.97;;
78622;SDS011;67943;54.412;9.502;2023-05-10T08:00:19;5.35;;;3.78;;
78622;SDS011;67943;54.412;9.502;2023-05-10T08:05:21;5.13;;;3.60;;
78622;SDS011;67943;54.412;9.502;2023-05-10T08:10:25;8.60;;;4.10;;
78622;SDS011;67943;54.412;9.502;2023-05-10T08:15:26;5.78;;;3.50;;
78622;SDS011;67943;54.412;9.502;2023-05-10T08:20:28;6.50;;;3.97;;
78622;SDS011;67943;54.412;9.502;2023-05-10T08:25:31;6.15;;;3.60;;
78622;SDS011;67943;54.412;9.502;2023-05-10T08:30:32;7.03;;;3.75;;
78622;SDS011;67943;54.412;9.502;2023-05-10T08:35:34;4.55;;;3.30;;
78622;SDS011;67943;54.412;9.502;2023-05-10T08:40:37;6.70;;;3.92;;
78622;SDS011;67943;54.412;9.502;2023-05-10T08:45:41;5.30;;;3.55;;
78622;SDS011;67943;54.412;9.502;2023-05-10T08:50:45;6.88;;;3.40;;
78622;SDS011;67943;54.412;9.502;2023-05-10T08:55:50;5.90;;;4.25;;
78622;SDS011;67943;54.412;9.502;2023-05-10T09:00:51;5.28;;;3.83;;
78622;SDS011;67943;54.412;9.502;2023-05-10T09:05:54;10.70;;;4.00;;
78622;SDS011;67943;54.412;9.502;2023-05-10T09:10:57;5.07;;;3.83;;
78622;SDS011;67943;54.412;9.502;2023-05-10T09:15:59;7.07;;;3.53;;
78622;SDS011;67943;54.412;9.502;2023-05-10T09:21:01;5.45;;;3.45;;
78622;SDS011;67943;54.412;9.502;2023-05-10T09:26:04;5.38;;;3.58;;
78622;SDS011;67943;54.412;9.502;2023-05-10T09:31:05;4.53;;;3.42;;
78622;SDS011;67943;54.412;9.502;2023-05-10T09:36:07;5.28;;;3.53;;
78622;SDS011;67943;54.412;9.502;2023-05-10T09:41:16;6.13;;;3.88;;
78622;SDS011;67943;54.412;9.502;2023-05-10T09:46:18;5.55;;;3.58;;
78622;SDS011;67943;54.412;9.502;2023-05-10T09:51:20;5.72;;;3.55;;
78622;SDS011;67943;54.412;9.502;2023-05-10T10:01:40;5.22;;;3.20;;
78622;SDS011;67943;54.412;9.502;2023-05-10T10:06:42;10.00;;;4.70;;
78622;SDS011;67943;54.412;9.502;2023-05-10T10:11:45;5.88;;;4.05;;
78622;SDS011;67943;54.412;9.502;2023-05-10T10:16:47;6.90;;;4.45;;
78622;SDS011;67943;54.412;9.502;2023-05-10T10:21:49;5.25;;;3.70;;
78622;SDS011;67943;54.412;9.502;2023-05-10T10:26:53;5.35;;;3.90;;
78622;SDS011;67943;54.412;9.502;2023-05-10T10:32:01;8.23;;;4.03;;
78622;SDS011;67943;54.412;9.502;2023-05-10T10:37:08;9.43;;;4.37;;
78622;SDS011;67943;54.412;9.502;2023-05-10T10:42:11;10.32;;;5.00;;
78622;SDS011;67943;54.412;9.502;2023-05-10T10:47:22;8.90;;;4.88;;
78622;SDS011;67943;54.412;9.502;2023-05-10T10:52:25;6.85;;;5.20;;
78622;SDS011;67943;54.412;9.502;2023-05-10T10:57:32;10.98;;;5.93;;
78622;SDS011;67943;54.412;9.502;2023-05-10T11:02:42;9.60;;;5.35;;
78622;SDS011;67943;54.412;9.502;2023-05-10T11:07:52;9.20;;;6.75;;
78622;SDS011;67943;54.412;9.502;2023-05-10T11:13:00;9.55;;;6.10;;
78622;SDS011;67943;54.412;9.502;2023-05-10T11:18:16;10.35;;;6.50;;
78622;SDS011;67943;54.412;9.502;2023-05-10T11:23:18;9.57;;;6.78;;
78622;SDS011;67943;54.412;9.502;2023-05-10T11:28:22;10.60;;;7.10;;
78622;SDS011;67943;54.412;9.502;2023-05-10T11:33:24;12.35;;;7.32;;
78622;SDS011;67943;54.412;9.502;2023-05-10T11:38:25;10.70;;;7.60;;
78622;SDS011;67943;54.412;9.502;2023-05-10T11:43:28;11.75;;;7.38;;
78622;SDS011;67943;54.412;9.502;2023-05-10T11:48:30;11.48;;;8.82;;
78622;SDS011;67943;54.412;9.502;2023-05-10T11:53:32;13.50;;;8.88;;
78622;SDS011;67943;54.412;9.502;2023-05-10T11:58:35;13.80;;;8.52;;
78622;SDS011;67943;54.412;9.502;2023-05-10T12:03:39;12.90;;;8.80;;
78622;SDS011;67943;54.412;9.502;2023-05-10T12:08:43;15.63;;;9.45;;
78622;SDS011;67943;54.412;9.502;2023-05-10T12:13:47;14.70;;;10.68;;
78622;SDS011;67943;54.412;9.502;2023-05-10T12:18:50;13.30;;;10.25;;
78622;SDS011;67943;54.412;9.502;2023-05-10T12:23:53;14.00;;;10.02;;
78622;SDS011;67943;54.412;9.502;2023-05-10T12:34:29;14.13;;;10.70;;
78622;SDS011;67943;54.412;9.502;2023-05-10T12:39:39;15.18;;;9.93;;
78622;SDS011;67943;54.412;9.502;2023-05-10T12:44:41;12.50;;;9.38;;
78622;SDS011;67943;54.412;9.502;2023-05-10T12:49:44;14.73;;;10.02;;
78622;SDS011;67943;54.412;9.502;2023-05-10T12:54:46;14.60;;;9.48;;
78622;SDS011;67943;54.412;9.502;2023-05-10T12:59:47;15.02;;;10.05;;
78622;SDS011;67943;54.412;9.502;2023-05-10T13:04:51;15.20;;;10.57;;
78622;SDS011;67943;54.412;9.502;2023-05-10T13:09:52;15.50;;;11.05;;
78622;SDS011;67943;54.412;9.502;2023-05-10T13:14:54;12.60;;;8.90;;
78622;SDS011;67943;54.412;9.502;2023-05-10T13:19:57;13.02;;;10.55;;
78622;SDS011;67943;54.412;9.502;2023-05-10T13:24:58;13.63;;;9.88;;
78622;SDS011;67943;54.412;9.502;2023-05-10T13:29:59;12.60;;;10.35;;
78622;SDS011;67943;54.412;9.502;2023-05-10T13:35:05;13.45;;;10.00;;
78622;SDS011;67943;54.412;9.502;2023-05-10T13:40:07;14.43;;;10.00;;
78622;SDS011;67943;54.412;9.502;2023-05-10T13:45:09;13.95;;;9.82;;
78622;SDS011;67943;54.412;9.502;2023-05-10T13:50:13;12.18;;;9.38;;
78622;SDS011;67943;54.412;9.502;2023-05-10T13:55:15;11.68;;;9.50;;
78622;SDS011;67943;54.412;9.502;2023-05-10T14:00:16;12.68;;;9.85;;
78622;SDS011;67943;54.412;9.502;2023-05-10T14:05:19;15.10;;;10.27;;
78622;SDS011;67943;54.412;9.502;2023-05-10T14:10:21;14.73;;;11.35;;
78622;SDS011;67943;54.412;9.502;2023-05-10T14:15:22;14.27;;;11.30;;
78622;SDS011;67943;54.412;9.502;2023-05-10T14:20:25;12.82;;;10.88;;
78622;SDS011;67943;54.412;9.502;2023-05-10T14:25:27;12.32;;;9.45;;
78622;SDS011;67943;54.412;9.502;2023-05-10T14:30:28;13.43;;;8.07;;
78622;SDS011;67943;54.412;9.502;2023-05-10T14:35:32;9.07;;;7.65;;
78622;SDS011;67943;54.412;9.502;2023-05-10T14:40:33;10.50;;;7.75;;
78622;SDS011;67943;54.412;9.502;2023-05-10T14:45:35;7.32;;;5.57;;
78622;SDS011;67943;54.412;9.502;2023-05-10T14:50:38;6.72;;;5.25;;
78622;SDS011;67943;54.412;9.502;2023-05-10T14:55:40;7.30;;;4.85;;
78622;SDS011;67943;54.412;9.502;2023-05-10T15:00:41;4.25;;;3.58;;
78622;SDS011;67943;54.412;9.502;2023-05-10T15:05:44;5.20;;;3.58;;
78622;SDS011;67943;54.412;9.502;2023-05-10T15:10:46;3.00;;;2.63;;
78622;SDS011;67943;54.412;9.502;2023-05-10T15:15:47;3.97;;;3.08;;
78622;SDS011;67943;54.412;9.502;2023-05-10T15:20:50;3.30;;;3.00;;
78622;SDS011;67943;54.412;9.502;2023-05-10T15:25:52;3.60;;;3.25;;
78622;SDS011;67943;54.412;9.502;2023-05-10T15:30:55;3.08;;;2.58;;
78622;SDS011;67943;54.412;9.502;2023-05-10T15:35:58;2.92;;;2.63;;
78622;SDS011;67943;54.412;9.502;2023-05-10T15:41:00;3.20;;;2.83;;
78622;SDS011;67943;54.412;9.502;2023-05-10T15:46:01;4.55;;;3.35;;
78622;SDS011;67943;54.412;9.502;2023-05-10T15:51:04;3.95;;;3.20;;
78622;SDS011;67943;54.412;9.502;2023-05-10T15:56:06;3.42;;;3.13;;
78622;SDS011;67943;54.412;9.502;2023-05-10T16:01:08;4.20;;;3.40;;
78622;SDS011;67943;54.412;9.502;2023-05-10T16:06:12;4.20;;;3.65;;
78622;SDS011;67943;54.412;9.502;2023-05-10T16:11:14;4.50;;;4.10;;
78622;SDS011;67943;54.412;9.502;2023-05-10T16:16:15;5.93;;;5.32;;
78622;SDS011;67943;54.412;9.502;2023-05-10T16:21:18;6.47;;;5.82;;
78622;SDS011;67943;54.412;9.502;2023-05-10T16:26:19;6.00;;;5.43;;
78622;SDS011;67943;54.412;9.502;2023-05-10T16:31:21;8.10;;;7.30;;
78622;SDS011;67943;54.412;9.502;2023-05-10T16:36:24;7.45;;;6.72;;
78622;SDS011;67943;54.412;9.502;2023-05-10T16:41:26;7.97;;;6.72;;
78622;SDS011;67943;54.412;9.502;2023-05-10T16:46:27;8.02;;;7.22;;
78622;SDS011;67943;54.412;9.502;2023-05-10T16:51:30;8.57;;;7.43;;
78622;SDS011;67943;54.412;9.502;2023-05-10T16:56:31;9.07;;;8.02;;
78622;SDS011;67943;54.412;9.502;2023-05-10T17:01:33;8.00;;;7.07;;
78622;SDS011;67943;54.412;9.502;2023-05-10T17:06:36;8.52;;;6.97;;
78622;SDS011;67943;54.412;9.502;2023-05-10T17:11:37;8.15;;;7.32;;
78622;SDS011;67943;54.412;9.502;2023-05-10T17:16:39;8.57;;;7.68;;
78622;SDS011;67943;54.412;9.502;2023-05-10T17:21:42;9.10;;;7.97;;
78622;SDS011;67943;54.412;9.502;2023-05-10T17:26:44;8.93;;;8.02;;
78622;SDS011;67943;54.412;9.502;2023-05-10T17:31:45;9.40;;;8.23;;
78622;SDS011;67943;54.412;9.502;2023-05-10T17:36:48;9.32;;;8.25;;
78622;SDS011;67943;54.412;9.502;2023-05-10T17:41:50;10.10;;;8.60;;
78622;SDS011;67943;54.412;9.502;2023-05-10T17:46:51;9.88;;;8.25;;
78622;SDS011;67943;54.412;9.502;2023-05-10T17:51:54;10.25;;;6.90;;
78622;SDS011;67943;54.412;9.502;2023-05-10T17:56:55;10.70;;;7.45;;
78622;SDS011;67943;54.412;9.502;2023-05-10T18:01:57;9.68;;;6.97;;
78622;SDS011;67943;54.412;9.502;2023-05-10T18:07:00;8.02;;;6.05;;
78622;SDS011;67943;54.412;9.502;2023-05-10T18:12:02;8.75;;;6.53;;
78622;SDS011;67943;54.412;9.502;2023-05-10T18:17:03;10.25;;;7.15;;
78622;SDS011;67943;54.412;9.502;2023-05-10T18:22:06;10.32;;;7.40;;
78622;SDS011;67943;54.412;9.502;2023-05-10T18:27:08;10.23;;;7.10;;
78622;SDS011;67943;54.412;9.502;2023-05-10T18:32:09;10.07;;;7.50;;
78622;SDS011;67943;54.412;9.502;2023-05-10T18:37:12;10.73;;;6.90;;
78622;SDS011;67943;54.412;9.502;2023-05-10T18:42:14;11.63;;;7.95;;
78622;SDS011;67943;54.412;9.502;2023-05-10T18:47:16;10.80;;;7.00;;
78622;SDS011;67943;54.412;9.502;2023-05-10T18:52:19;10.75;;;7.10;;
78622;SDS011;67943;54.412;9.502;2023-05-10T18:57:20;18.30;;;10.57;;
78622;SDS011;67943;54.412;9.502;2023-05-10T19:02:23;12.35;;;6.88;;
78622;SDS011;67943;54.412;9.502;2023-05-10T19:07:27;11.40;;;6.45;;
78622;SDS011;67943;54.412;9.502;2023-05-10T19:12:29;11.63;;;6.32;;
78622;SDS011;67943;54.412;9.502;2023-05-10T19:17:30;14.73;;;7.47;;
78622;SDS011;67943;54.412;9.502;2023-05-10T19:22:33;12.85;;;7.05;;
78622;SDS011;67943;54.412;9.502;2023-05-10T19:27:34;10.00;;;6.70;;
78622;SDS011;67943;54.412;9.502;2023-05-10T19:32:36;12.05;;;7.40;;
78622;SDS011;67943;54.412;9.502;2023-05-10T19:37:39;13.88;;;7.90;;
78622;SDS011;67943;54.412;9.502;2023-05-10T19:42:44;12.95;;;7.63;;
78622;SDS011;67943;54.412;9.502;2023-05-10T19:47:46;12.52;;;8.32;;
78622;SDS011;67943;54.412;9.502;2023-05-10T19:52:49;15.05;;;8.68;;
78622;SDS011;67943;54.412;9.502;2023-05-10T19:57:50;18.50;;;11.05;;
78622;SDS011;67943;54.412;9.502;2023-05-10T20:02:52;17.35;;;9.93;;
78622;SDS011;67943;54.412;9.502;2023-05-10T20:07:55;18.63;;;10.18;;
78622;SDS011;67943;54.412;9.502;2023-05-10T20:12:56;16.92;;;9.60;;
78622;SDS011;67943;54.412;9.502;2023-05-10T20:17:59;19.13;;;10.50;;
78622;SDS011;67943;54.412;9.502;2023-05-10T20:23:03;22.77;;;11.65;;
78622;SDS011;67943;54.412;9.502;2023-05-10T20:28:05;20.10;;;11.40;;
78622;SDS011;67943;54.412;9.502;2023-05-10T20:33:09;22.45;;;11.85;;
78622;SDS011;67943;54.412;9.502;2023-05-10T20:38:12;20.35;;;11.15;;
78622;SDS011;67943;54.412;9.502;2023-05-10T20:43:13;23.00;;;12.23;;
78622;SDS011;67943;54.412;9.502;2023-05-10T20:53:34;27.60;;;12.18;;
78622;SDS011;67943;54.412;9.502;2023-05-10T20:58:35;23.25;;;11.32;;
78622;SDS011;67943;54.412;9.502;2023-05-10T21:03:37;21.15;;;11.20;;
78622;SDS011;67943;54.412;9.502;2023-05-10T21:08:40;24.85;;;11.70;;
78622;SDS011;67943;54.412;9.502;2023-05-10T21:13:41;22.38;;;11.35;;
78622;SDS011;67943;54.412;9.502;2023-05-10T21:18:43;20.83;;;10.70;;
78622;SDS011;67943;54.412;9.502;2023-05-10T21:23:46;23.83;;;10.48;;
78622;SDS011;67943;54.412;9.502;2023-05-10T21:28:47;26.55;;;11.95;;
78622;SDS011;67943;54.412;9.502;2023-05-10T21:33:49;20.90;;;9.88;;
78622;SDS011;67943;54.412;9.502;2023-05-10T21:38:51;29.42;;;11.93;;
78622;SDS011;67943;54.412;9.502;2023-05-10T21:43:53;26.30;;;10.75;;
78622;SDS011;67943;54.412;9.502;2023-05-10T21:48:55;30.35;;;13.20;;
78622;SDS011;67943;54.412;9.502;2023-05-10T21:53:58;32.10;;;13.40;;
78622;SDS011;67943;54.412;9.502;2023-05-10T21:58:59;32.70;;;13.35;;
78622;SDS011;67943;54.412;9.502;2023-05-10T22:04:01;30.35;;;12.93;;
78622;SDS011;67943;54.412;9.502;2023-05-10T22:09:04;36.97;;;15.07;;
78622;SDS011;67943;54.412;9.502;2023-05-10T22:14:05;35.45;;;15.13;;
78622;SDS011;67943;54.412;9.502;2023-05-10T22:19:07;32.95;;;13.48;;
78622;SDS011;67943;54.412;9.502;2023-05-10T22:24:10;34.08;;;15.43;;
78622;SDS011;67943;54.412;9.502;2023-05-10T22:29:12;31.02;;;14.07;;
78622;SDS011;67943;54.412;9.502;2023-05-10T22:34:13;30.45;;;12.68;;
78622;SDS011;67943;54.412;9.502;2023-05-10T22:39:16;34.38;;;15.25;;
78622;SDS011;67943;54.412;9.502;2023-05-10T22:44:18;29.23;;;14.13;;
78622;SDS011;67943;54.412;9.502;2023-05-10T22:49:19;29.45;;;15.40;;
78622;SDS011;67943;54.412;9.502;2023-05-10T22:54:22;28.70;;;14.52;;
78622;SDS011;67943;54.412;9.502;2023-05-10T22:59:24;27.27;;;14.98;;
78622;SDS011;67943;54.412;9.502;2023-05-10T23:04:27;22.27;;;12.43;;
78622;SDS011;67943;54.412;9.502;2023-05-10T23:09:30;22.85;;;12.35;;
78622;SDS011;67943;54.412;9.502;2023-05-10T23:14:32;23.30;;;11.48;;
78622;SDS011;67943;54.412;9.502;2023-05-10T23:19:33;14.82;;;8.23;;
78622;SDS011;67943;54.412;9.502;2023-05-10T23:24:36;17.10;;;9.68;;
78622;SDS011;67943;54.412;9.502;2023-05-10T23:29:38;14.57;;;8.13;;
78622;SDS011;67943;54.412;9.502;2023-05-10T23:34:39;13.63;;;7.45;;
78622;SDS011;67943;54.412;9.502;2023-05-10T23:39:42;13.57;;;7.47;;
78622;SDS011;67943;54.412;9.502;2023-05-10T23:44:44;12.88;;;7.57;;
78622;SDS011;67943;54.412;9.502;2023-05-10T23:49:45;12.43;;;7.15;;
78622;SDS011;67943;54.412;9.502;2023-05-10T23:54:48;14.23;;;7.82;;
78622;SDS011;67943;54.412;9.502;2023-05-10T23:59:50;12.57;;;7.25;;
